Time;durP1;ratioP1;P1;durP2;ratioP2;P2;SDS_P1;SDS_P2;PMS_P1;PMS_P2;Temp;Humidity;BMP_temperature;BMP_pressure;BME280_temperature;BME280_humidity;BME280_pressure;Samples;Min_cycle;Max_cycle;Signal;HPM_P1;HPM_P2
2022/07/16 00:03:15;;;;;;;1.70;1.60;;;;;;;;;;5034904;28;20600;-86
2022/07/16 00:05:42;;;;;;;2.70;1.80;;;;;;;;;;5035096;28;20210;-85
2022/07/16 00:08:10;;;;;;;2.37;1.60;;;;;;;;;;5034980;28;20237;-85
2022/07/16 00:10:37;;;;;;;2.37;1.83;;;;;;;;;;5035292;28;20217;-85
2022/07/16 00:13:04;;;;;;;2.00;1.77;;;;;;;;;;5034798;28;20284;-85
2022/07/16 00:15:31;;;;;;;1.70;1.60;;;;;;;;;;5035548;28;20211;-85
2022/07/16 00:20:39;;;;;;;5.17;1.80;;;;;;;;;;5033984;28;20301;-85
2022/07/16 00:23:06;;;;;;;2.67;2.03;;;;;;;;;;5034711;28;20328;-85
2022/07/16 00:25:35;;;;;;;3.37;1.87;;;;;;;;;;5035511;28;20213;-85
2022/07/16 00:28:02;;;;;;;3.20;1.87;;;;;;;;;;5037518;28;20242;-86
2022/07/16 00:30:29;;;;;;;5.27;1.90;;;;;;;;;;5034789;28;20211;-86
2022/07/16 00:32:56;;;;;;;2.27;1.80;;;;;;;;;;5034423;28;20242;-86
2022/07/16 00:35:23;;;;;;;2.43;2.20;;;;;;;;;;5034690;28;20207;-86
2022/07/16 00:37:50;;;;;;;2.17;1.90;;;;;;;;;;5034398;28;20597;-87
2022/07/16 00:40:17;;;;;;;3.20;1.70;;;;;;;;;;5034908;28;20210;-87
2022/07/16 00:42:46;;;;;;;4.67;2.00;;;;;;;;;;5034046;28;20745;-87
2022/07/16 00:45:13;;;;;;;4.97;1.97;;;;;;;;;;5036368;28;20215;-86
2022/07/16 00:47:40;;;;;;;2.23;1.73;;;;;;;;;;5034352;28;20211;-87
2022/07/16 00:50:07;;;;;;;2.47;1.83;;;;;;;;;;5034627;28;20213;-87
2022/07/16 00:52:36;;;;;;;4.73;1.87;;;;;;;;;;5033874;28;20249;-87
2022/07/16 00:55:03;;;;;;;4.63;1.90;;;;;;;;;;5034415;28;20250;-87
2022/07/16 00:57:30;;;;;;;2.20;2.00;;;;;;;;;;5034462;28;20237;-87
2022/07/16 00:59:58;;;;;;;2.43;1.90;;;;;;;;;;5030172;28;20227;-87
2022/07/16 01:02:25;;;;;;;4.17;1.80;;;;;;;;;;5035252;28;20242;-87
2022/07/16 01:04:52;;;;;;;2.03;1.70;;;;;;;;;;5029584;28;20234;-85
2022/07/16 01:07:22;;;;;;;2.07;1.80;;;;;;;;;;5030672;28;20195;-86
2022/07/16 01:09:49;;;;;;;2.30;1.90;;;;;;;;;;5033584;28;20234;-86
2022/07/16 01:12:16;;;;;;;2.67;1.80;;;;;;;;;;5033755;28;20258;-86
2022/07/16 01:14:44;;;;;;;2.50;1.80;;;;;;;;;;5033610;28;20289;-86
2022/07/16 01:17:12;;;;;;;4.47;1.77;;;;;;;;;;5033953;28;20674;-87
2022/07/16 01:19:40;;;;;;;3.43;2.00;;;;;;;;;;5034799;28;20241;-85
2022/07/16 01:22:07;;;;;;;2.20;1.73;;;;;;;;;;5033559;28;20239;-85
2022/07/16 01:24:35;;;;;;;1.97;1.73;;;;;;;;;;5033481;28;20254;-86
2022/07/16 01:27:02;;;;;;;3.67;1.93;;;;;;;;;;5043305;28;20218;-86
2022/07/16 01:29:29;;;;;;;2.03;1.83;;;;;;;;;;5033682;28;20242;-86
2022/07/16 01:31:56;;;;;;;1.80;1.70;;;;;;;;;;5033945;28;20226;-86
2022/07/16 01:34:26;;;;;;;2.33;1.90;;;;;;;;;;5047007;28;20226;-86
2022/07/16 01:36:54;;;;;;;2.30;1.90;;;;;;;;;;5057068;28;20217;-86
2022/07/16 01:39:22;;;;;;;2.87;1.80;;;;;;;;;;5056122;28;20230;-87
2022/07/16 01:41:54;;;;;;;2.13;1.97;;;;;;;;;;5055685;28;20234;-86
2022/07/16 01:44:21;;;;;;;2.33;2.07;;;;;;;;;;5054839;28;20230;-86
2022/07/16 01:46:48;;;;;;;4.83;2.23;;;;;;;;;;5048510;28;20202;-87
2022/07/16 01:49:15;;;;;;;1.87;1.77;;;;;;;;;;5040458;28;20235;-87
2022/07/16 01:51:45;;;;;;;3.40;1.90;;;;;;;;;;5037213;28;20256;-86
2022/07/16 01:54:12;;;;;;;2.00;1.90;;;;;;;;;;5056194;28;20230;-86
2022/07/16 01:56:39;;;;;;;3.37;2.00;;;;;;;;;;5055658;28;20213;-87
2022/07/16 01:59:07;;;;;;;2.40;2.20;;;;;;;;;;5055525;28;20230;-87
2022/07/16 02:01:35;;;;;;;2.27;2.07;;;;;;;;;;5055922;28;20227;-87
2022/07/16 02:04:02;;;;;;;4.60;1.97;;;;;;;;;;5056405;28;20285;-86
2022/07/16 02:06:29;;;;;;;1.83;1.73;;;;;;;;;;5056852;28;20286;-86
2022/07/16 02:08:56;;;;;;;2.10;1.90;;;;;;;;;;5056631;28;20226;-86
2022/07/16 02:11:23;;;;;;;4.10;2.00;;;;;;;;;;5056045;28;20237;-87
2022/07/16 02:13:50;;;;;;;4.47;2.10;;;;;;;;;;5056318;28;20230;-87
2022/07/16 02:16:18;;;;;;;2.57;2.37;;;;;;;;;;5056564;28;20219;-86
2022/07/16 02:18:45;;;;;;;2.53;2.00;;;;;;;;;;5055137;28;20258;-86
2022/07/16 02:21:12;;;;;;;2.03;1.87;;;;;;;;;;5056604;28;20218;-87
2022/07/16 02:23:39;;;;;;;3.30;1.97;;;;;;;;;;5055461;28;20234;-87
2022/07/16 02:26:06;;;;;;;2.60;2.00;;;;;;;;;;5056164;28;20228;-87
2022/07/16 02:28:33;;;;;;;2.93;2.27;;;;;;;;;;5055656;28;20245;-87
2022/07/16 02:31:03;;;;;;;2.83;2.17;;;;;;;;;;5055971;28;20215;-87
2022/07/16 02:33:32;;;;;;;2.33;2.13;;;;;;;;;;5055876;28;20237;-86
2022/07/16 02:35:59;;;;;;;2.57;1.83;;;;;;;;;;5055031;28;20209;-86
2022/07/16 02:38:26;;;;;;;3.53;2.07;;;;;;;;;;5032182;28;20245;-86
2022/07/16 02:40:53;;;;;;;2.20;2.10;;;;;;;;;;5032310;28;20233;-86
2022/07/16 02:43:20;;;;;;;3.47;2.07;;;;;;;;;;5032274;28;20230;-86
2022/07/16 02:45:47;;;;;;;3.53;2.00;;;;;;;;;;5037327;28;20337;-87
2022/07/16 02:48:14;;;;;;;2.47;2.00;;;;;;;;;;5056037;28;20230;-87
2022/07/16 02:50:42;;;;;;;3.97;2.07;;;;;;;;;;5055807;28;20226;-86
2022/07/16 02:53:10;;;;;;;2.33;2.13;;;;;;;;;;5055475;28;20222;-86
2022/07/16 02:55:39;;;;;;;1.90;1.80;;;;;;;;;;5052748;28;20922;-87
2022/07/16 02:58:16;;;;;;;2.77;2.30;;;;;;;;;;5037227;28;20275;-87
2022/07/16 03:00:43;;;;;;;2.40;2.10;;;;;;;;;;5036114;28;20333;-87
2022/07/16 03:03:10;;;;;;;2.27;2.10;;;;;;;;;;5032336;28;20234;-86
2022/07/16 03:05:37;;;;;;;3.67;2.00;;;;;;;;;;5032201;28;20570;-87
2022/07/16 03:08:07;;;;;;;2.33;2.13;;;;;;;;;;5031661;28;20246;-87
2022/07/16 03:10:34;;;;;;;7.07;2.30;;;;;;;;;;5031329;28;20253;-87
2022/07/16 03:13:01;;;;;;;2.20;2.03;;;;;;;;;;5031409;28;20738;-86
2022/07/16 03:15:28;;;;;;;2.37;2.17;;;;;;;;;;5031933;28;20690;-86
2022/07/16 03:17:55;;;;;;;2.57;2.10;;;;;;;;;;5031452;28;20241;-86
2022/07/16 03:20:23;;;;;;;2.07;1.97;;;;;;;;;;5032217;28;20217;-86
2022/07/16 03:22:50;;;;;;;3.67;2.20;;;;;;;;;;5031638;28;20215;-86
2022/07/16 03:25:19;;;;;;;2.20;2.00;;;;;;;;;;5032026;28;20628;-86
2022/07/16 03:27:46;;;;;;;2.43;1.77;;;;;;;;;;5031926;28;20217;-87
2022/07/16 03:30:14;;;;;;;3.10;2.17;;;;;;;;;;5033481;28;20248;-87
2022/07/16 03:32:41;;;;;;;2.47;2.17;;;;;;;;;;5035417;28;20237;-84
2022/07/16 03:35:09;;;;;;;2.27;2.00;;;;;;;;;;5038966;28;20253;-85
2022/07/16 03:38:57;;;;;;;4.60;2.43;;;;;;;;;;5035732;28;20702;-84
2022/07/16 03:40:26;;;;;;;2.10;2.00;;;;;;;;;;5035531;28;20284;-84
2022/07/16 03:42:53;;;;;;;2.40;2.20;;;;;;;;;;5035822;28;20234;-85
2022/07/16 03:45:21;;;;;;;2.87;2.30;;;;;;;;;;5035938;28;20217;-85
2022/07/16 03:47:48;;;;;;;7.80;2.47;;;;;;;;;;5035240;28;20207;-85
2022/07/16 03:50:15;;;;;;;4.10;2.37;;;;;;;;;;5036347;28;20207;-85
2022/07/16 03:52:42;;;;;;;3.27;2.13;;;;;;;;;;5035748;28;20214;-85
2022/07/16 03:55:09;;;;;;;4.00;2.37;;;;;;;;;;5044975;28;20210;-86
2022/07/16 03:57:44;;;;;;;3.23;2.07;;;;;;;;;;5041450;28;20224;-86
2022/07/16 04:00:11;;;;;;;3.20;2.07;;;;;;;;;;5042479;28;20229;-86
2022/07/16 04:02:39;;;;;;;2.30;2.10;;;;;;;;;;5040556;28;20222;-87
2022/07/16 04:05:09;;;;;;;4.40;2.70;;;;;;;;;;5046543;28;20203;-88
2022/07/16 04:07:36;;;;;;;4.50;2.27;;;;;;;;;;5041116;28;20355;-86
2022/07/16 04:10:04;;;;;;;3.63;2.10;;;;;;;;;;5035255;28;20211;-86
2022/07/16 04:12:31;;;;;;;2.20;2.00;;;;;;;;;;5078829;23;20228;-84
2022/07/16 04:15:01;;;;;;;2.77;2.13;;;;;;;;;;5074777;28;20221;-84
2022/07/16 04:17:28;;;;;;;3.83;2.20;;;;;;;;;;5075609;28;20236;-84
2022/07/16 04:19:55;;;;;;;2.20;2.10;;;;;;;;;;5074686;28;20240;-84
2022/07/16 04:22:22;;;;;;;2.40;2.20;;;;;;;;;;5074966;28;20237;-84
2022/07/16 04:24:49;;;;;;;4.07;2.20;;;;;;;;;;5074674;28;20268;-84
2022/07/16 04:27:16;;;;;;;2.40;2.20;;;;;;;;;;5075206;28;20206;-84
2022/07/16 04:29:43;;;;;;;2.20;2.10;;;;;;;;;;5074491;28;20225;-84
2022/07/16 04:32:11;;;;;;;3.20;2.30;;;;;;;;;;5074960;28;20282;-84
2022/07/16 04:34:38;;;;;;;2.67;2.43;;;;;;;;;;5074471;28;20244;-85
2022/07/16 04:37:05;;;;;;;2.63;2.37;;;;;;;;;;5075118;28;20229;-85
2022/07/16 04:39:33;;;;;;;3.10;2.30;;;;;;;;;;5074105;28;20608;-85
2022/07/16 04:42:00;;;;;;;2.10;2.00;;;;;;;;;;5073597;28;20236;-85
2022/07/16 04:44:27;;;;;;;3.53;2.30;;;;;;;;;;5074207;28;20233;-85
2022/07/16 04:46:54;;;;;;;2.37;2.17;;;;;;;;;;5074489;28;20220;-85
2022/07/16 04:49:22;;;;;;;3.23;2.20;;;;;;;;;;5073816;28;20236;-85
2022/07/16 04:51:49;;;;;;;3.30;2.53;;;;;;;;;;5074298;28;20225;-84
2022/07/16 04:54:16;;;;;;;2.40;2.30;;;;;;;;;;5074005;28;20241;-85
2022/07/16 04:56:43;;;;;;;5.80;2.43;;;;;;;;;;5074470;28;20213;-84
2022/07/16 04:59:10;;;;;;;2.60;2.40;;;;;;;;;;5072935;28;20241;-85
2022/07/16 05:01:37;;;;;;;2.87;2.50;;;;;;;;;;5053730;28;20218;-85
2022/07/16 05:04:05;;;;;;;4.23;2.33;;;;;;;;;;5053746;28;20237;-85
2022/07/16 05:06:33;;;;;;;2.90;2.30;;;;;;;;;;5053976;28;20678;-86
2022/07/16 05:09:01;;;;;;;2.10;2.00;;;;;;;;;;5053348;28;20238;-85
2022/07/16 05:11:28;;;;;;;3.67;2.50;;;;;;;;;;5053518;28;20234;-85
2022/07/16 05:13:55;;;;;;;2.40;2.20;;;;;;;;;;5053480;28;20237;-86
2022/07/16 05:16:23;;;;;;;2.27;2.13;;;;;;;;;;5053805;28;20214;-85
2022/07/16 05:18:50;;;;;;;2.90;2.70;;;;;;;;;;5053390;28;20695;-85
2022/07/16 05:21:17;;;;;;;2.53;2.10;;;;;;;;;;5054592;28;20229;-85
2022/07/16 05:23:45;;;;;;;2.50;2.30;;;;;;;;;;5054432;28;20234;-85
2022/07/16 05:26:12;;;;;;;4.20;2.50;;;;;;;;;;5053939;28;20669;-85
2022/07/16 05:28:39;;;;;;;2.23;2.07;;;;;;;;;;5053528;28;20244;-86
2022/07/16 05:31:06;;;;;;;2.40;2.20;;;;;;;;;;5049820;28;20199;-85
2022/07/16 05:33:34;;;;;;;2.40;2.20;;;;;;;;;;5053095;28;20581;-85
2022/07/16 05:36:01;;;;;;;6.97;2.50;;;;;;;;;;5054161;28;20206;-85
2022/07/16 05:38:28;;;;;;;2.93;2.23;;;;;;;;;;5053480;28;20650;-85
2022/07/16 05:40:57;;;;;;;2.23;2.03;;;;;;;;;;5053912;28;20669;-85
2022/07/16 05:43:24;;;;;;;2.53;2.10;;;;;;;;;;5053734;28;20237;-85
2022/07/16 05:45:51;;;;;;;3.40;2.27;;;;;;;;;;5053193;28;20727;-85
2022/07/16 05:48:18;;;;;;;3.43;2.17;;;;;;;;;;5052974;28;20721;-85
2022/07/16 05:50:45;;;;;;;2.90;2.20;;;;;;;;;;5053412;28;20579;-85
2022/07/16 05:53:12;;;;;;;3.97;2.60;;;;;;;;;;5058278;28;20238;-85
2022/07/16 05:55:39;;;;;;;2.53;2.20;;;;;;;;;;5058374;28;20598;-85
2022/07/16 05:58:08;;;;;;;6.30;2.37;;;;;;;;;;5058281;28;20230;-84
2022/07/16 06:00:35;;;;;;;2.13;2.03;;;;;;;;;;5059327;28;20229;-86
2022/07/16 06:03:03;;;;;;;2.67;1.93;;;;;;;;;;5060097;28;20360;-84
2022/07/16 06:05:30;;;;;;;3.27;2.23;;;;;;;;;;5061008;28;20217;-85
2022/07/16 06:07:57;;;;;;;2.53;2.13;;;;;;;;;;5060147;28;20244;-85
2022/07/16 06:10:24;;;;;;;3.33;2.60;;;;;;;;;;5061586;28;20198;-85
2022/07/16 06:12:51;;;;;;;2.37;2.20;;;;;;;;;;5059957;28;20246;-85
2022/07/16 06:15:20;;;;;;;3.13;2.27;;;;;;;;;;5060352;28;20285;-85
2022/07/16 06:17:47;;;;;;;3.87;1.90;;;;;;;;;;5057484;28;20205;-84
2022/07/16 06:20:14;;;;;;;2.20;2.00;;;;;;;;;;5058631;28;20227;-85
2022/07/16 06:22:41;;;;;;;4.50;1.97;;;;;;;;;;5056308;28;20236;-85
2022/07/16 06:25:08;;;;;;;4.53;2.10;;;;;;;;;;5051924;28;20212;-85
2022/07/16 06:27:36;;;;;;;2.70;1.93;;;;;;;;;;5052768;28;20209;-84
2022/07/16 06:30:04;;;;;;;5.93;2.53;;;;;;;;;;5052834;28;20200;-84
2022/07/16 06:32:33;;;;;;;4.13;2.10;;;;;;;;;;5061641;28;20225;-87
2022/07/16 06:35:00;;;;;;;2.63;1.90;;;;;;;;;;5064001;28;20233;-84
2022/07/16 06:37:27;;;;;;;2.30;2.00;;;;;;;;;;5066200;28;20206;-85
2022/07/16 06:39:55;;;;;;;3.87;1.70;;;;;;;;;;5052406;28;20236;-86
2022/07/16 06:42:22;;;;;;;3.40;1.80;;;;;;;;;;5055868;28;20221;-89
2022/07/16 06:44:49;;;;;;;4.63;1.97;;;;;;;;;;5056670;28;20238;-91
2022/07/16 06:47:16;;;;;;;2.63;1.50;;;;;;;;;;5053615;28;20207;-90
2022/07/16 06:49:44;;;;;;;6.60;2.00;;;;;;;;;;5052164;28;20232;-86
2022/07/16 06:52:12;;;;;;;7.27;1.63;;;;;;;;;;5052322;28;20237;-86
2022/07/16 06:54:39;;;;;;;2.20;1.90;;;;;;;;;;5051784;28;20248;-87
2022/07/16 06:57:06;;;;;;;1.80;1.70;;;;;;;;;;5053594;28;20574;-87
2022/07/16 06:59:33;;;;;;;4.15;1.73;;;;;;;;;;5051748;28;20234;-89
2022/07/16 07:02:00;;;;;;;4.10;1.70;;;;;;;;;;5048628;28;20237;-85
2022/07/16 07:04:27;;;;;;;2.40;1.33;;;;;;;;;;5045405;28;20707;-90
2022/07/16 07:06:56;;;;;;;4.65;1.27;;;;;;;;;;5055166;28;20213;-87
2022/07/16 07:09:23;;;;;;;1.95;1.00;;;;;;;;;;5054975;28;20210;-85
2022/07/16 07:11:50;;;;;;;1.40;1.30;;;;;;;;;;5054087;28;20234;-88
2022/07/16 07:14:17;;;;;;;1.25;1.15;;;;;;;;;;5055919;28;20218;-86
2022/07/16 07:16:44;;;;;;;2.20;1.20;;;;;;;;;;5054270;28;20212;-85
2022/07/16 07:19:11;;;;;;;4.20;1.50;;;;;;;;;;5051635;28;20231;-87
2022/07/16 07:21:39;;;;;;;2.50;1.17;;;;;;;;;;5054285;28;20232;-87
2022/07/16 07:24:08;;;;;;;4.38;0.93;;;;;;;;;;5053840;28;20233;-87
2022/07/16 07:26:35;;;;;;;2.47;1.10;;;;;;;;;;5054730;28;20190;-87
2022/07/16 07:29:02;;;;;;;3.30;1.02;;;;;;;;;;5049488;28;20214;-88
2022/07/16 07:31:29;;;;;;;3.70;1.17;;;;;;;;;;5054251;28;20244;-86
2022/07/16 07:33:56;;;;;;;2.15;1.00;;;;;;;;;;5053942;28;20228;-85
2022/07/16 07:36:23;;;;;;;3.05;1.20;;;;;;;;;;5051128;28;20211;-85
2022/07/16 07:38:50;;;;;;;2.65;1.02;;;;;;;;;;5045548;28;20249;-87
2022/07/16 07:41:19;;;;;;;2.05;1.02;;;;;;;;;;5046680;28;20237;-86
2022/07/16 07:43:47;;;;;;;3.60;1.10;;;;;;;;;;5051212;28;20233;-89
2022/07/16 07:46:14;;;;;;;2.70;1.40;;;;;;;;;;5052366;28;20194;-87
2022/07/16 07:48:41;;;;;;;5.60;1.63;;;;;;;;;;5052484;28;20241;-88
2022/07/16 07:51:08;;;;;;;3.53;1.38;;;;;;;;;;5052316;28;20203;-87
2022/07/16 07:53:36;;;;;;;2.72;1.60;;;;;;;;;;5051309;28;20231;-91
2022/07/16 07:56:03;;;;;;;1.83;1.08;;;;;;;;;;5054023;28;20195;-87
2022/07/16 07:58:31;;;;;;;2.72;1.48;;;;;;;;;;5053527;28;20257;-84
2022/07/16 08:00:58;;;;;;;1.17;1.02;;;;;;;;;;5051283;28;20286;-87
2022/07/16 08:03:25;;;;;;;2.70;1.55;;;;;;;;;;5036801;28;20235;-88
2022/07/16 08:05:52;;;;;;;4.57;1.50;;;;;;;;;;5026469;28;20219;-88
2022/07/16 08:08:20;;;;;;;2.65;1.50;;;;;;;;;;5027555;28;20231;-88
2022/07/16 08:10:47;;;;;;;2.88;1.45;;;;;;;;;;5023231;28;20230;-88
2022/07/16 08:13:14;;;;;;;3.55;1.20;;;;;;;;;;5024750;28;20235;-88
2022/07/16 08:15:42;;;;;;;1.65;1.30;;;;;;;;;;5028212;28;20674;-89
2022/07/16 08:18:10;;;;;;;1.13;1.00;;;;;;;;;;5033539;28;20218;-88
2022/07/16 08:20:38;;;;;;;3.63;1.25;;;;;;;;;;5032000;28;20223;-89
2022/07/16 08:23:05;;;;;;;1.40;1.05;;;;;;;;;;5033319;28;20258;-88
2022/07/16 08:25:46;;;;;;;1.23;1.10;;;;;;;;;;5030745;28;20211;-88
2022/07/16 08:28:14;;;;;;;2.08;1.52;;;;;;;;;;5030935;28;20237;-89
2022/07/16 08:30:43;;;;;;;4.75;1.25;;;;;;;;;;5034643;28;20203;-88
2022/07/16 08:33:10;;;;;;;3.45;1.40;;;;;;;;;;5025374;28;20740;-89
2022/07/16 08:35:37;;;;;;;3.92;1.27;;;;;;;;;;5025638;28;20215;-89
2022/07/16 08:38:04;;;;;;;2.67;1.15;;;;;;;;;;5026056;28;20231;-89
2022/07/16 08:40:39;;;;;;;1.20;0.80;;;;;;;;;;5031737;28;20228;-89
2022/07/16 08:43:06;;;;;;;3.25;1.45;;;;;;;;;;5011235;28;20245;-89
2022/07/16 08:45:36;;;;;;;3.33;1.08;;;;;;;;;;5049639;28;20203;-89
2022/07/16 08:48:04;;;;;;;1.65;1.20;;;;;;;;;;5040282;28;20230;-89
2022/07/16 08:50:31;;;;;;;2.42;1.20;;;;;;;;;;5044010;28;20207;-89
2022/07/16 08:52:59;;;;;;;1.58;0.90;;;;;;;;;;5041499;28;20226;-90
2022/07/16 08:55:26;;;;;;;2.45;1.40;;;;;;;;;;5042877;28;20183;-89
2022/07/16 08:57:54;;;;;;;1.67;1.20;;;;;;;;;;5040080;28;20705;-89
2022/07/16 09:00:21;;;;;;;2.05;1.23;;;;;;;;;;5041028;28;20227;-89
2022/07/16 09:02:49;;;;;;;3.22;1.10;;;;;;;;;;5039795;28;20226;-89
2022/07/16 09:05:17;;;;;;;3.70;1.50;;;;;;;;;;5041978;28;20214;-89
2022/07/16 09:07:45;;;;;;;5.13;3.13;;;;;;;;;;5039590;28;20198;-89
2022/07/16 09:10:12;;;;;;;2.03;1.45;;;;;;;;;;5039419;28;20211;-87
2022/07/16 09:12:40;;;;;;;1.60;1.25;;;;;;;;;;5049779;28;20237;-88
2022/07/16 09:15:24;;;;;;;1.77;1.40;;;;;;;;;;5049945;28;20207;-87
2022/07/16 09:18:15;;;;;;;1.25;1.15;;;;;;;;;;5053211;28;20202;-88
2022/07/16 09:20:44;;;;;;;2.25;1.30;;;;;;;;;;5045921;28;20218;-93
2022/07/16 09:23:26;;;;;;;1.42;1.10;;;;;;;;;;5043542;28;20238;-89
2022/07/16 09:25:55;;;;;;;1.83;1.20;;;;;;;;;;5039333;28;20207;-89
2022/07/16 09:28:22;;;;;;;1.10;1.00;;;;;;;;;;5038324;28;20640;-89
2022/07/16 09:30:50;;;;;;;1.67;1.35;;;;;;;;;;5038008;28;20203;-89
2022/07/16 09:33:18;;;;;;;1.50;1.38;;;;;;;;;;5038947;28;20258;-89
2022/07/16 09:35:47;;;;;;;1.05;1.02;;;;;;;;;;5039811;28;20203;-90
2022/07/16 09:38:14;;;;;;;4.55;1.58;;;;;;;;;;5038984;28;20230;-89
2022/07/16 09:40:42;;;;;;;1.60;1.48;;;;;;;;;;5041146;28;20260;-89
2022/07/16 09:43:20;;;;;;;2.33;1.30;;;;;;;;;;5036544;28;20650;-89
2022/07/16 09:45:48;;;;;;;1.52;1.42;;;;;;;;;;5036912;28;20210;-89
2022/07/16 09:48:22;;;;;;;2.10;1.27;;;;;;;;;;5036499;28;20306;-89
2022/07/16 09:50:51;;;;;;;1.63;1.13;;;;;;;;;;5037049;28;20203;-90
2022/07/16 09:53:18;;;;;;;2.20;1.20;;;;;;;;;;5035682;28;20288;-89
2022/07/16 09:55:55;;;;;;;2.13;1.23;;;;;;;;;;5037011;28;20213;-89
2022/07/16 09:58:22;;;;;;;1.77;1.15;;;;;;;;;;5027405;28;20230;-89
2022/07/16 10:00:49;;;;;;;3.53;1.40;;;;;;;;;;5035565;28;20234;-89
2022/07/16 10:03:17;;;;;;;2.42;1.05;;;;;;;;;;5036507;28;20601;-89
2022/07/16 10:05:44;;;;;;;1.20;1.10;;;;;;;;;;5037709;28;20218;-90
2022/07/16 10:08:12;;;;;;;1.85;1.40;;;;;;;;;;5037632;28;20253;-90
2022/07/16 10:10:39;;;;;;;1.52;1.15;;;;;;;;;;5036040;28;20220;-90
2022/07/16 10:13:07;;;;;;;1.08;0.95;;;;;;;;;;5034554;28;20231;-90
2022/07/16 10:15:34;;;;;;;2.22;1.30;;;;;;;;;;5034119;28;20203;-89
2022/07/16 10:18:01;;;;;;;2.50;1.38;;;;;;;;;;5048054;28;20234;-91
2022/07/16 10:20:28;;;;;;;1.50;1.40;;;;;;;;;;5036603;28;20261;-89
2022/07/16 10:22:55;;;;;;;1.55;0.90;;;;;;;;;;5034756;28;20241;-89
2022/07/16 10:25:24;;;;;;;3.00;1.40;;;;;;;;;;5034170;28;20199;-90
2022/07/16 10:27:52;;;;;;;2.78;1.30;;;;;;;;;;5033683;28;20230;-89
2022/07/16 10:30:20;;;;;;;1.60;1.40;;;;;;;;;;5034587;28;20237;-90
2022/07/16 10:33:06;;;;;;;3.08;1.05;;;;;;;;;;5033643;28;20215;-86
2022/07/16 10:35:34;;;;;;;4.30;1.08;;;;;;;;;;5034200;28;20214;-87
2022/07/16 10:38:07;;;;;;;1.27;1.15;;;;;;;;;;5033092;28;20746;-87
2022/07/16 10:40:37;;;;;;;1.98;1.13;;;;;;;;;;5032121;28;20698;-86
2022/07/16 10:43:14;;;;;;;1.45;1.30;;;;;;;;;;5032132;28;20260;-86
2022/07/16 10:45:49;;;;;;;1.75;1.05;;;;;;;;;;5034681;28;20194;-87
2022/07/16 10:48:16;;;;;;;1.40;1.30;;;;;;;;;;5033595;28;20253;-87
2022/07/16 10:51:17;;;;;;;2.15;1.30;;;;;;;;;;5033968;28;20230;-86
2022/07/16 10:54:02;;;;;;;1.30;1.20;;;;;;;;;;4973106;28;20325;-87
2022/07/16 10:56:34;;;;;;;4.25;1.30;;;;;;;;;;4972940;28;20208;-86
2022/07/16 10:59:02;;;;;;;2.80;1.63;;;;;;;;;;5009455;28;20249;-87
2022/07/16 11:01:30;;;;;;;2.25;1.20;;;;;;;;;;5033685;28;20603;-86
2022/07/16 11:03:57;;;;;;;1.50;1.40;;;;;;;;;;5049716;28;20227;-88
2022/07/16 11:06:24;;;;;;;1.85;1.50;;;;;;;;;;5036086;28;20280;-87
2022/07/16 11:08:53;;;;;;;1.92;1.30;;;;;;;;;;5034982;28;20234;-87
2022/07/16 11:11:20;;;;;;;1.60;1.25;;;;;;;;;;5036314;28;20326;-86
2022/07/16 11:13:49;;;;;;;1.25;1.13;;;;;;;;;;5045722;28;20235;-87
2022/07/16 11:16:16;;;;;;;1.60;1.30;;;;;;;;;;5054669;28;20194;-87
2022/07/16 11:18:43;;;;;;;1.60;1.33;;;;;;;;;;5049364;28;20231;-86
2022/07/16 11:21:10;;;;;;;1.42;1.13;;;;;;;;;;5050863;28;20237;-86
2022/07/16 11:23:47;;;;;;;1.42;1.30;;;;;;;;;;5052701;28;20222;-87
2022/07/16 11:26:14;;;;;;;2.53;1.13;;;;;;;;;;5047990;28;20233;-86
2022/07/16 11:28:52;;;;;;;1.67;1.45;;;;;;;;;;5049452;28;20238;-87
2022/07/16 11:31:24;;;;;;;2.03;1.42;;;;;;;;;;5046770;28;20285;-87
2022/07/16 11:33:51;;;;;;;1.80;1.60;;;;;;;;;;5037603;28;20238;-86
2022/07/16 11:36:19;;;;;;;2.55;1.20;;;;;;;;;;5034391;28;20210;-85
2022/07/16 11:38:47;;;;;;;1.42;1.30;;;;;;;;;;5032970;28;20238;-87
2022/07/16 11:41:14;;;;;;;1.23;1.13;;;;;;;;;;5036582;28;20237;-86
2022/07/16 11:43:41;;;;;;;2.45;1.40;;;;;;;;;;5033682;28;20710;-86
2022/07/16 11:46:21;;;;;;;1.40;1.20;;;;;;;;;;5034479;28;20689;-89
2022/07/16 11:48:48;;;;;;;2.88;1.30;;;;;;;;;;5032346;28;20625;-88
2022/07/16 11:51:15;;;;;;;2.22;1.00;;;;;;;;;;5033750;28;20210;-89
2022/07/16 11:53:42;;;;;;;1.52;1.30;;;;;;;;;;5035627;28;20238;-88
2022/07/16 11:56:12;;;;;;;2.15;1.20;;;;;;;;;;5036332;28;20211;-88
2022/07/16 11:58:39;;;;;;;1.65;1.38;;;;;;;;;;5035489;28;20288;-88
2022/07/16 12:01:06;;;;;;;1.52;1.30;;;;;;;;;;5035834;28;20223;-89
2022/07/16 12:03:35;;;;;;;1.85;1.10;;;;;;;;;;5035210;28;20234;-86
2022/07/16 12:06:02;;;;;;;1.55;1.35;;;;;;;;;;5036028;28;20206;-88
2022/07/16 12:08:30;;;;;;;1.60;1.15;;;;;;;;;;5035419;28;20237;-89
2022/07/16 12:11:04;;;;;;;2.10;1.20;;;;;;;;;;5036257;28;20253;-88
2022/07/16 12:13:31;;;;;;;3.78;1.67;;;;;;;;;;5035300;28;20230;-89
2022/07/16 12:15:59;;;;;;;2.30;1.35;;;;;;;;;;5035661;28;20206;-89
2022/07/16 12:18:26;;;;;;;1.23;1.13;;;;;;;;;;5034785;28;20277;-86
2022/07/16 12:20:55;;;;;;;1.10;1.10;;;;;;;;;;5035856;28;20238;-87
2022/07/16 12:23:32;;;;;;;1.58;1.48;;;;;;;;;;5034668;28;20245;-89
2022/07/16 12:26:01;;;;;;;2.55;1.38;;;;;;;;;;5035618;28;20206;-88
2022/07/16 12:28:29;;;;;;;1.23;1.13;;;;;;;;;;5035089;28;20234;-89
2022/07/16 12:30:57;;;;;;;2.70;1.55;;;;;;;;;;5035401;28;20206;-88
2022/07/16 12:33:25;;;;;;;1.92;1.30;;;;;;;;;;5035089;28;20234;-89
2022/07/16 12:35:52;;;;;;;2.90;1.40;;;;;;;;;;5035065;28;20226;-89
2022/07/16 12:38:41;;;;;;;4.28;1.40;;;;;;;;;;5034683;28;20276;-87
2022/07/16 12:41:11;;;;;;;1.35;1.25;;;;;;;;;;5034923;28;20273;-88
2022/07/16 12:43:39;;;;;;;3.15;1.40;;;;;;;;;;5034887;28;20245;-89
2022/07/16 12:46:06;;;;;;;1.60;1.50;;;;;;;;;;5035625;28;20211;-90
2022/07/16 12:48:42;;;;;;;1.38;1.27;;;;;;;;;;5034443;28;20669;-87
2022/07/16 12:51:09;;;;;;;2.45;1.50;;;;;;;;;;5035083;28;20592;-89
2022/07/16 12:53:36;;;;;;;1.38;1.30;;;;;;;;;;5034630;28;20230;-89
2022/07/16 12:58:49;;;;;;;2.45;1.17;;;;;;;;;;5035059;28;20698;-90
2022/07/16 13:01:17;;;;;;;1.98;1.20;;;;;;;;;;5035825;28;20234;-89
2022/07/16 13:03:44;;;;;;;3.22;1.50;;;;;;;;;;5034432;28;20627;-87
2022/07/16 13:06:11;;;;;;;1.85;1.25;;;;;;;;;;5034574;28;20206;-88
2022/07/16 13:08:38;;;;;;;3.55;1.60;;;;;;;;;;5034596;28;20230;-90
2022/07/16 13:11:08;;;;;;;3.10;1.30;;;;;;;;;;5036262;28;20663;-89
2022/07/16 13:13:35;;;;;;;3.33;1.50;;;;;;;;;;5034813;28;20230;-90
2022/07/16 13:16:02;;;;;;;1.38;1.27;;;;;;;;;;5046464;28;20250;-90
2022/07/16 13:18:29;;;;;;;1.20;1.10;;;;;;;;;;5037075;28;20253;-89
2022/07/16 13:20:56;;;;;;;3.70;1.50;;;;;;;;;;5035544;28;20195;-88
2022/07/16 13:23:23;;;;;;;1.50;1.40;;;;;;;;;;5034293;28;20234;-89
2022/07/16 13:25:50;;;;;;;2.25;1.42;;;;;;;;;;5034581;28;20203;-89
2022/07/16 13:28:19;;;;;;;2.03;1.20;;;;;;;;;;5033891;28;20239;-90
2022/07/16 13:30:46;;;;;;;1.83;1.40;;;;;;;;;;5034147;28;20215;-90
2022/07/16 13:33:14;;;;;;;1.95;1.40;;;;;;;;;;5033235;28;20234;-90
2022/07/16 13:35:42;;;;;;;2.42;1.63;;;;;;;;;;5034056;28;20258;-89
2022/07/16 13:38:09;;;;;;;2.17;1.60;;;;;;;;;;5033136;28;20632;-88
2022/07/16 13:40:37;;;;;;;2.05;1.50;;;;;;;;;;5033977;28;20709;-89
2022/07/16 13:43:04;;;;;;;2.67;2.03;;;;;;;;;;5033340;28;20264;-89
2022/07/16 13:45:32;;;;;;;1.92;1.38;;;;;;;;;;5034311;28;20214;-90
2022/07/16 13:47:59;;;;;;;1.50;1.40;;;;;;;;;;5033572;28;20257;-89
2022/07/16 13:50:26;;;;;;;1.40;1.20;;;;;;;;;;5033874;28;20198;-90
2022/07/16 13:52:53;;;;;;;3.08;1.58;;;;;;;;;;5033617;28;20240;-90
2022/07/16 13:55:20;;;;;;;2.20;1.50;;;;;;;;;;5034281;28;20210;-89
2022/07/16 14:00:33;;;;;;;1.50;1.40;;;;;;;;;;5034101;28;20198;-86
2022/07/16 14:03:00;;;;;;;1.40;1.30;;;;;;;;;;5032948;28;20238;-89
2022/07/16 14:05:27;;;;;;;2.38;1.40;;;;;;;;;;5034306;28;20628;-89
2022/07/16 14:07:55;;;;;;;2.90;1.40;;;;;;;;;;5053312;28;20241;-89
2022/07/16 14:10:22;;;;;;;1.92;1.40;;;;;;;;;;5054214;28;20202;-89
2022/07/16 14:12:49;;;;;;;1.88;1.35;;;;;;;;;;5053066;28;20237;-89
2022/07/16 14:15:16;;;;;;;2.10;1.48;;;;;;;;;;5052872;28;20198;-88
2022/07/16 14:17:45;;;;;;;2.10;1.15;;;;;;;;;;5053545;28;20216;-89
2022/07/16 14:20:13;;;;;;;1.63;1.52;;;;;;;;;;5053551;28;20217;-89
2022/07/16 14:22:41;;;;;;;1.13;1.10;;;;;;;;;;5056289;28;20214;-89
2022/07/16 14:25:08;;;;;;;2.00;1.35;;;;;;;;;;5068281;28;20639;-89
2022/07/16 14:27:35;;;;;;;1.48;1.35;;;;;;;;;;5055174;28;20210;-88
2022/07/16 14:30:03;;;;;;;2.38;1.48;;;;;;;;;;5054608;28;20206;-89
2022/07/16 14:32:30;;;;;;;1.73;1.20;;;;;;;;;;5053007;28;20214;-90
2022/07/16 14:34:58;;;;;;;2.42;1.60;;;;;;;;;;5052764;28;20296;-89
2022/07/16 14:37:25;;;;;;;1.30;1.30;;;;;;;;;;5053982;28;20202;-89
2022/07/16 14:39:52;;;;;;;1.30;1.20;;;;;;;;;;5052293;28;20237;-89
2022/07/16 14:42:20;;;;;;;2.75;1.40;;;;;;;;;;5052660;28;20241;-90
2022/07/16 14:44:47;;;;;;;1.25;1.15;;;;;;;;;;5052102;28;20244;-89
2022/07/16 14:47:14;;;;;;;1.45;1.35;;;;;;;;;;5052792;28;20659;-89
2022/07/16 14:49:41;;;;;;;2.22;1.55;;;;;;;;;;5052003;28;20238;-88
2022/07/16 14:52:09;;;;;;;1.60;1.50;;;;;;;;;;5052273;28;20629;-88
2022/07/16 14:54:36;;;;;;;1.17;1.10;;;;;;;;;;5052116;28;20241;-88
2022/07/16 14:57:03;;;;;;;1.60;1.23;;;;;;;;;;5054196;28;20206;-88
2022/07/16 14:59:31;;;;;;;3.22;1.35;;;;;;;;;;5052510;28;20230;-90